Time;durP1;ratioP1;P1;durP2;ratioP2;P2;SDS_P1;SDS_P2;PMS_P1;PMS_P2;Temp;Humidity;BMP_temperature;BMP_pressure;BME280_temperature;BME280_humidity;BME280_pressure;Samples;Min_cycle;Max_cycle;Signal;HPM_P1;HPM_P2
2023/10/14 00:00:35;;;;;;;;;;;15.10;99.90;;;;;;7328388;19;9121;-80
2023/10/14 00:03:06;;;;;;;;;;;15.10;99.90;;;;;;7328868;19;9305;-80
2023/10/14 00:05:37;;;;;;;;;;;15.00;99.90;;;;;;7327754;19;9262;-80
2023/10/14 00:08:12;;;;;;;;;;;15.00;99.90;;;;;;7328904;19;9332;-80
2023/10/14 00:10:41;;;;;;;;;;;15.00;99.90;;;;;;7328282;19;9514;-80
2023/10/14 00:13:16;;;;;;;;;;;15.10;99.90;;;;;;7328721;19;9288;-80
2023/10/14 00:15:45;;;;;;;;;;;15.00;99.90;;;;;;7328584;19;10143;-80
2023/10/14 00:18:17;;;;;;;;;;;15.20;99.90;;;;;;7328094;19;9110;-80
2023/10/14 00:20:51;;;;;;;;;;;15.30;99.90;;;;;;7328131;19;9184;-80
2023/10/14 00:23:23;;;;;;;;;;;15.30;99.90;;;;;;7327803;19;9478;-80
2023/10/14 00:25:52;;;;;;;;;;;15.30;99.90;;;;;;7328442;19;9819;-80
2023/10/14 00:28:22;;;;;;;;;;;15.30;99.90;;;;;;7328091;19;9245;-80
2023/10/14 00:30:55;;;;;;;;;;;15.10;99.90;;;;;;7328700;19;9166;-81
2023/10/14 00:33:24;;;;;;;;;;;15.20;99.90;;;;;;7327578;19;10593;-80
2023/10/14 00:35:59;;;;;;;;;;;15.20;99.90;;;;;;7328661;19;9236;-80
2023/10/14 00:38:34;;;;;;;;;;;15.10;99.90;;;;;;7327755;19;9587;-80
2023/10/14 00:41:04;;;;;;;;;;;15.50;99.90;;;;;;7327645;19;9247;-80
2023/10/14 00:43:35;;;;;;;;;;;15.50;99.90;;;;;;7328082;19;9798;-80
2023/10/14 00:46:16;;;;;;;;;;;15.50;99.90;;;;;;7327061;19;9209;-80
2023/10/14 00:48:47;;;;;;;;;;;15.50;99.90;;;;;;7327769;19;9178;-80
2023/10/14 00:51:23;;;;;;;;;;;15.50;99.90;;;;;;7327052;19;9133;-80
2023/10/14 00:54:01;;;;;;;;;;;15.40;99.90;;;;;;7327892;19;9557;-80
2023/10/14 00:56:31;;;;;;;;;;;15.20;99.90;;;;;;7328010;19;9204;-80
2023/10/14 00:59:04;;;;;;;;;;;15.10;99.90;;;;;;7327360;19;9210;-80
2023/10/14 01:01:49;;;;;;;;;;;14.90;99.90;;;;;;7327729;19;9455;-80
2023/10/14 01:04:21;;;;;;;;;;;14.90;99.90;;;;;;7325990;19;10455;-80
2023/10/14 01:07:02;;;;;;;;;;;15.00;99.90;;;;;;7327641;19;9158;-80
2023/10/14 01:09:48;;;;;;;;;;;15.00;99.90;;;;;;7328009;19;9383;-81
2023/10/14 01:12:21;;;;;;;;;;;15.00;99.90;;;;;;7326909;19;11406;-80
2023/10/14 01:14:53;;;;;;;;;;;15.00;99.90;;;;;;7327725;19;9430;-80
2023/10/14 01:17:26;;;;;;;;;;;15.00;99.90;;;;;;7327114;19;9222;-80
2023/10/14 01:19:55;;;;;;;;;;;14.90;99.90;;;;;;7326934;19;9459;-79
2023/10/14 01:22:27;;;;;;;;;;;15.00;99.90;;;;;;7327547;19;10394;-80
2023/10/14 01:24:56;;;;;;;;;;;15.10;99.90;;;;;;7326833;19;9259;-80
2023/10/14 01:27:33;;;;;;;;;;;15.10;99.90;;;;;;7327107;19;9253;-80
2023/10/14 01:30:08;;;;;;;;;;;14.90;99.90;;;;;;7326185;19;9250;-80
2023/10/14 01:32:43;;;;;;;;;;;14.80;99.90;;;;;;7326738;19;10820;-80
2023/10/14 01:35:23;;;;;;;;;;;14.90;99.90;;;;;;7326760;19;9262;-80
2023/10/14 01:37:56;;;;;;;;;;;15.00;99.90;;;;;;7326486;19;9184;-80
2023/10/14 01:40:27;;;;;;;;;;;14.80;99.90;;;;;;7327040;19;9215;-81
2023/10/14 01:43:05;;;;;;;;;;;14.90;99.90;;;;;;7326158;19;9179;-80
2023/10/14 01:45:39;;;;;;;;;;;14.90;99.90;;;;;;7326440;19;9237;-80
2023/10/14 01:48:19;;;;;;;;;;;14.90;99.90;;;;;;7325591;19;9243;-80
2023/10/14 01:50:54;;;;;;;;;;;15.00;99.90;;;;;;7325849;19;9190;-80
2023/10/14 01:53:27;;;;;;;;;;;14.80;99.90;;;;;;7325831;19;9539;-80
2023/10/14 01:55:59;;;;;;;;;;;14.80;99.90;;;;;;7325768;19;9167;-80
2023/10/14 01:58:32;;;;;;;;;;;15.00;99.90;;;;;;7325901;19;9237;-80
2023/10/14 02:01:14;;;;;;;;;;;15.00;99.90;;;;;;7325105;19;9264;-80
2023/10/14 02:03:47;;;;;;;;;;;15.00;99.90;;;;;;7325648;19;9738;-80
2023/10/14 02:06:26;;;;;;;;;;;15.00;99.90;;;;;;7325663;19;9192;-81
2023/10/14 02:09:00;;;;;;;;;;;15.00;99.90;;;;;;7324866;19;9379;-80
2023/10/14 02:11:33;;;;;;;;;;;14.80;99.90;;;;;;7325651;19;9231;-80
2023/10/14 02:14:07;;;;;;;;;;;14.90;99.90;;;;;;7324588;19;9237;-80
2023/10/14 02:16:44;;;;;;;;;;;14.90;99.90;;;;;;7322984;19;9496;-80
2023/10/14 02:19:21;;;;;;;;;;;14.90;99.90;;;;;;7325053;19;9688;-80
2023/10/14 02:21:57;;;;;;;;;;;14.90;99.90;;;;;;7324148;19;10653;-80
2023/10/14 02:24:30;;;;;;;;;;;14.80;99.90;;;;;;7325373;19;9201;-80
2023/10/14 02:27:06;;;;;;;;;;;14.70;99.90;;;;;;7324398;19;9186;-80
2023/10/14 02:29:35;;;;;;;;;;;14.60;99.90;;;;;;7321268;19;9256;-80
2023/10/14 02:32:06;;;;;;;;;;;14.50;99.90;;;;;;7323685;19;9125;-80
2023/10/14 02:34:35;;;;;;;;;;;14.30;99.90;;;;;;7324756;19;9383;-80
2023/10/14 02:37:07;;;;;;;;;;;14.40;99.90;;;;;;7324450;19;10905;-80
2023/10/14 02:39:38;;;;;;;;;;;14.30;99.90;;;;;;7324378;19;10324;-80
2023/10/14 02:42:09;;;;;;;;;;;14.60;99.90;;;;;;7324862;19;9512;-80
2023/10/14 02:44:51;;;;;;;;;;;14.70;99.90;;;;;;7323473;19;9294;-80
2023/10/14 02:47:26;;;;;;;;;;;14.70;99.90;;;;;;7324821;19;9138;-80
2023/10/14 02:50:05;;;;;;;;;;;14.70;99.90;;;;;;7324122;19;9457;-80
2023/10/14 02:52:38;;;;;;;;;;;14.70;99.90;;;;;;7323876;19;9264;-80
2023/10/14 02:55:25;;;;;;;;;;;14.50;99.90;;;;;;7324223;19;9271;-80
2023/10/14 02:57:54;;;;;;;;;;;14.40;99.90;;;;;;7323945;19;9261;-80
2023/10/14 03:00:29;;;;;;;;;;;14.30;99.90;;;;;;7323788;19;10522;-81
2023/10/14 03:03:02;;;;;;;;;;;14.20;99.90;;;;;;7324249;19;9194;-80
2023/10/14 03:05:51;;;;;;;;;;;14.20;99.90;;;;;;7324031;19;9279;-81
2023/10/14 03:08:20;;;;;;;;;;;14.30;99.90;;;;;;7323332;19;9492;-80
2023/10/14 03:10:59;;;;;;;;;;;14.30;99.90;;;;;;7324082;19;9260;-80
2023/10/14 03:13:29;;;;;;;;;;;14.30;99.90;;;;;;7322771;19;9330;-80
2023/10/14 03:16:00;;;;;;;;;;;14.40;99.90;;;;;;7323770;19;9194;-80
2023/10/14 03:18:38;;;;;;;;;;;14.40;99.90;;;;;;7323384;19;9361;-80
2023/10/14 03:21:09;;;;;;;;;;;14.40;99.90;;;;;;7323435;19;9318;-80
2023/10/14 03:23:38;;;;;;;;;;;14.20;99.90;;;;;;7324002;19;9463;-80
2023/10/14 03:26:12;;;;;;;;;;;14.10;99.90;;;;;;7323507;19;9265;-80
2023/10/14 03:28:44;;;;;;;;;;;14.00;99.90;;;;;;7329653;19;9306;-80
2023/10/14 03:31:17;;;;;;;;;;;14.00;99.90;;;;;;7329129;19;9113;-80
2023/10/14 03:33:46;;;;;;;;;;;14.00;99.90;;;;;;7329862;19;9639;-80
2023/10/14 03:36:22;;;;;;;;;;;14.00;99.90;;;;;;7329322;19;9566;-80
2023/10/14 03:38:58;;;;;;;;;;;14.10;99.90;;;;;;7329318;19;9384;-80
2023/10/14 03:41:37;;;;;;;;;;;14.00;99.90;;;;;;7329516;19;9506;-80
2023/10/14 03:44:09;;;;;;;;;;;13.80;99.90;;;;;;7328489;19;9221;-80
2023/10/14 03:46:42;;;;;;;;;;;13.80;99.90;;;;;;7329328;19;9242;-80
2023/10/14 03:49:20;;;;;;;;;;;14.00;99.90;;;;;;7328984;19;9230;-80
2023/10/14 03:51:52;;;;;;;;;;;14.10;99.90;;;;;;7328927;19;9186;-80
2023/10/14 03:54:23;;;;;;;;;;;14.10;99.90;;;;;;7329579;19;9345;-80
2023/10/14 03:56:57;;;;;;;;;;;14.20;99.90;;;;;;7328354;19;9464;-80
2023/10/14 03:59:26;;;;;;;;;;;14.20;99.90;;;;;;7328932;19;9123;-80
2023/10/14 04:02:01;;;;;;;;;;;14.20;99.90;;;;;;7328582;19;9477;-80
2023/10/14 04:04:31;;;;;;;;;;;14.00;99.90;;;;;;7328719;19;9578;-80
2023/10/14 04:09:51;;;;;;;;;;;14.10;99.90;;;;;;7326940;19;10522;-81
2023/10/14 04:12:30;;;;;;;;;;;14.00;99.90;;;;;;7328564;19;9527;-80
2023/10/14 04:15:05;;;;;;;;;;;14.00;99.90;;;;;;7328218;19;9554;-80
2023/10/14 04:17:35;;;;;;;;;;;13.80;99.90;;;;;;7328892;19;9248;-80
2023/10/14 04:22:45;;;;;;;;;;;13.70;99.90;;;;;;7328323;19;9168;-80
2023/10/14 04:25:19;;;;;;;;;;;13.60;99.90;;;;;;7328320;19;9503;-80
2023/10/14 04:30:38;;;;;;;;;;;13.60;99.90;;;;;;7328297;19;9205;-80
2023/10/14 04:33:17;;;;;;;;;;;13.70;99.90;;;;;;7328514;19;9633;-80
2023/10/14 04:38:38;;;;;;;;;;;13.60;99.90;;;;;;7327051;19;9176;-80
2023/10/14 04:41:12;;;;;;;;;;;13.50;99.90;;;;;;7327580;19;9558;-80
2023/10/14 04:44:03;;;;;;;;;;;13.50;99.90;;;;;;7328336;19;9243;-80
2023/10/14 04:46:45;;;;;;;;;;;13.50;99.90;;;;;;7328228;19;9181;-80
2023/10/14 04:49:29;;;;;;;;;;;13.70;99.90;;;;;;7327784;19;9411;-80
2023/10/14 04:51:58;;;;;;;;;;;13.70;99.90;;;;;;7327631;19;9364;-80
2023/10/14 04:54:29;;;;;;;;;;;13.70;99.90;;;;;;7327807;19;9201;-80
2023/10/14 04:56:58;;;;;;;;;;;13.70;99.90;;;;;;7327557;19;9338;-80
2023/10/14 04:59:31;;;;;;;;;;;13.70;99.90;;;;;;7327956;19;9242;-80
2023/10/14 05:02:00;;;;;;;;;;;13.70;99.90;;;;;;7327467;19;9255;-80
2023/10/14 05:04:30;;;;;;;;;;;13.70;99.90;;;;;;7327823;19;9235;-79
2023/10/14 05:07:04;;;;;;;;;;;13.60;99.90;;;;;;7326803;19;9125;-80
2023/10/14 05:09:39;;;;;;;;;;;13.70;99.90;;;;;;7327396;19;9594;-80
2023/10/14 05:12:14;;;;;;;;;;;13.70;99.90;;;;;;7327387;19;9486;-80
2023/10/14 05:14:45;;;;;;;;;;;13.70;99.90;;;;;;7326486;19;9173;-80
2023/10/14 05:17:18;;;;;;;;;;;13.80;99.90;;;;;;7327291;19;9146;-80
2023/10/14 05:19:54;;;;;;;;;;;14.00;99.90;;;;;;7326708;19;9574;-80
2023/10/14 05:22:23;;;;;;;;;;;14.10;99.90;;;;;;7327186;19;9592;-80
2023/10/14 05:25:02;;;;;;;;;;;14.00;99.90;;;;;;7326476;19;9685;-80
2023/10/14 05:27:46;;;;;;;;;;;13.80;99.90;;;;;;7326525;19;10657;-80
2023/10/14 05:30:21;;;;;;;;;;;14.00;99.90;;;;;;7327084;19;9179;-80
2023/10/14 05:32:51;;;;;;;;;;;14.30;99.90;;;;;;7326451;19;9460;-80
2023/10/14 05:35:22;;;;;;;;;;;14.30;99.90;;;;;;7326436;19;9522;-80
2023/10/14 05:37:52;;;;;;;;;;;14.20;99.90;;;;;;7326585;19;9198;-80
2023/10/14 05:40:21;;;;;;;;;;;14.00;99.90;;;;;;7326300;19;9205;-80
2023/10/14 05:42:50;;;;;;;;;;;13.90;99.90;;;;;;7326812;19;9580;-80
2023/10/14 05:45:22;;;;;;;;;;;13.70;99.90;;;;;;7326202;19;9182;-80
2023/10/14 05:47:51;;;;;;;;;;;13.50;99.90;;;;;;7326623;19;9355;-80
2023/10/14 05:50:21;;;;;;;;;;;13.40;99.90;;;;;;7322573;19;9310;-80
2023/10/14 05:52:50;;;;;;;;;;;13.20;99.90;;;;;;7325878;19;9167;-80
2023/10/14 05:55:19;;;;;;;;;;;13.20;99.90;;;;;;7325543;19;9120;-80
2023/10/14 05:57:49;;;;;;;;;;;13.10;99.90;;;;;;7326366;19;10417;-79
2023/10/14 06:00:25;;;;;;;;;;;13.40;99.90;;;;;;7325448;19;9164;-80
2023/10/14 06:02:58;;;;;;;;;;;13.50;99.90;;;;;;7325806;19;9472;-80
2023/10/14 06:05:29;;;;;;;;;;;13.60;99.90;;;;;;7325500;19;10669;-80
2023/10/14 06:08:05;;;;;;;;;;;13.60;99.90;;;;;;7325525;19;9509;-80
2023/10/14 06:10:37;;;;;;;;;;;13.70;99.90;;;;;;7325961;19;9158;-80
2023/10/14 06:13:08;;;;;;;;;;;13.70;99.90;;;;;;7324909;19;9225;-79
2023/10/14 06:15:40;;;;;;;;;;;13.80;99.90;;;;;;7325708;19;9332;-80
2023/10/14 06:18:13;;;;;;;;;;;13.70;99.90;;;;;;7325036;19;9605;-80
2023/10/14 06:20:45;;;;;;;;;;;13.60;99.90;;;;;;7325422;19;9409;-80
2023/10/14 06:23:14;;;;;;;;;;;13.60;99.90;;;;;;7324326;19;9219;-79
2023/10/14 06:25:43;;;;;;;;;;;13.50;99.90;;;;;;7325071;19;9400;-80
2023/10/14 06:28:14;;;;;;;;;;;13.50;99.90;;;;;;7325130;19;10376;-80
2023/10/14 06:30:44;;;;;;;;;;;13.60;99.90;;;;;;7325585;19;10213;-80
2023/10/14 06:33:15;;;;;;;;;;;13.50;99.90;;;;;;7325480;19;9250;-80
2023/10/14 06:35:47;;;;;;;;;;;13.60;99.90;;;;;;7324897;19;9250;-80
2023/10/14 06:38:22;;;;;;;;;;;13.50;99.90;;;;;;7325292;19;9358;-80
2023/10/14 06:40:55;;;;;;;;;;;13.40;99.90;;;;;;7324376;19;9332;-80
2023/10/14 06:43:26;;;;;;;;;;;13.50;99.90;;;;;;7325368;19;9449;-80
2023/10/14 06:45:56;;;;;;;;;;;13.50;99.90;;;;;;7324723;19;9119;-80
2023/10/14 06:48:28;;;;;;;;;;;13.50;99.90;;;;;;7325073;19;9228;-80
2023/10/14 06:50:59;;;;;;;;;;;13.60;99.90;;;;;;7324280;19;9224;-80
2023/10/14 06:53:29;;;;;;;;;;;13.50;99.90;;;;;;7324133;19;9179;-80
2023/10/14 06:56:00;;;;;;;;;;;13.40;99.90;;;;;;7325127;19;9173;-80
2023/10/14 06:58:32;;;;;;;;;;;13.50;99.90;;;;;;7324331;19;9333;-80
2023/10/14 07:01:03;;;;;;;;;;;13.60;99.90;;;;;;7325640;19;9178;-80
2023/10/14 07:03:34;;;;;;;;;;;13.50;99.90;;;;;;7337682;19;9257;-80
2023/10/14 07:06:04;;;;;;;;;;;13.50;99.90;;;;;;7337752;19;10373;-80
2023/10/14 07:08:34;;;;;;;;;;;13.40;99.90;;;;;;7337513;19;9293;-80
2023/10/14 07:11:06;;;;;;;;;;;13.60;99.90;;;;;;7338320;19;9222;-80
2023/10/14 07:13:38;;;;;;;;;;;13.80;99.90;;;;;;7337298;19;10708;-81
2023/10/14 07:16:08;;;;;;;;;;;14.00;99.90;;;;;;7337786;19;9748;-80
2023/10/14 07:18:40;;;;;;;;;;;14.70;99.90;;;;;;7337532;19;9647;-80
2023/10/14 07:21:13;;;;;;;;;;;15.30;99.90;;;;;;7337149;19;10493;-80
2023/10/14 07:23:43;;;;;;;;;;;15.70;99.90;;;;;;7337785;19;9241;-80
2023/10/14 07:26:14;;;;;;;;;;;16.10;99.90;;;;;;7336938;19;9258;-81
2023/10/14 07:28:51;;;;;;;;;;;16.20;99.90;;;;;;7337541;19;9293;-80
2023/10/14 07:31:23;;;;;;;;;;;16.40;99.90;;;;;;7337849;19;9472;-80
2023/10/14 07:34:02;;;;;;;;;;;16.60;99.90;;;;;;7336650;19;9299;-81
2023/10/14 07:36:31;;;;;;;;;;;16.70;99.90;;;;;;7336772;19;9190;-80
2023/10/14 07:39:02;;;;;;;;;;;16.70;99.90;;;;;;7336522;19;9446;-80
2023/10/14 07:41:31;;;;;;;;;;;16.70;99.90;;;;;;7336797;19;9206;-80
2023/10/14 07:44:00;;;;;;;;;;;16.60;99.90;;;;;;7336198;19;9258;-80
2023/10/14 07:46:29;;;;;;;;;;;16.50;99.90;;;;;;7336869;19;9406;-80
2023/10/14 07:49:02;;;;;;;;;;;16.40;99.90;;;;;;7335662;19;9480;-80
2023/10/14 07:51:32;;;;;;;;;;;16.40;99.90;;;;;;7336473;19;9297;-80
2023/10/14 07:54:00;;;;;;;;;;;16.10;99.90;;;;;;7336556;19;9177;-80
2023/10/14 07:56:29;;;;;;;;;;;15.80;99.90;;;;;;7336350;19;9246;-80
2023/10/14 07:58:58;;;;;;;;;;;15.70;99.90;;;;;;7336441;19;11240;-80
2023/10/14 08:01:27;;;;;;;;;;;15.70;99.90;;;;;;7336729;19;9250;-80
2023/10/14 08:03:57;;;;;;;;;;;15.60;99.90;;;;;;7336193;19;9160;-80
2023/10/14 08:06:31;;;;;;;;;;;15.40;99.90;;;;;;7336329;19;9166;-80
2023/10/14 08:09:00;;;;;;;;;;;15.60;99.90;;;;;;7336393;19;9559;-80
2023/10/14 08:11:36;;;;;;;;;;;15.60;99.90;;;;;;7335665;19;9179;-80
2023/10/14 08:14:06;;;;;;;;;;;15.70;99.90;;;;;;7327872;19;9352;-80
2023/10/14 08:16:37;;;;;;;;;;;15.90;99.90;;;;;;7328574;19;9578;-80
2023/10/14 08:19:06;;;;;;;;;;;15.90;99.90;;;;;;7327883;19;9237;-80
2023/10/14 08:21:38;;;;;;;;;;;15.90;99.90;;;;;;7328411;19;9477;-81
2023/10/14 08:24:08;;;;;;;;;;;15.90;99.90;;;;;;7328302;19;9471;-80
2023/10/14 08:26:37;;;;;;;;;;;15.80;99.90;;;;;;7328732;19;9172;-80
2023/10/14 08:29:06;;;;;;;;;;;16.00;99.90;;;;;;7328300;19;9555;-80
2023/10/14 08:31:37;;;;;;;;;;;16.10;99.90;;;;;;7328524;19;9261;-80
2023/10/14 08:34:07;;;;;;;;;;;16.30;99.90;;;;;;7327783;19;9661;-80
2023/10/14 08:36:42;;;;;;;;;;;16.10;99.90;;;;;;7328514;19;11191;-80
2023/10/14 08:39:14;;;;;;;;;;;16.10;99.90;;;;;;7327442;19;9227;-80
2023/10/14 08:41:49;;;;;;;;;;;16.30;99.90;;;;;;7328449;19;9165;-79
2023/10/14 08:44:24;;;;;;;;;;;16.20;99.90;;;;;;7327843;19;9504;-80
2023/10/14 08:46:55;;;;;;;;;;;16.20;99.90;;;;;;7328160;19;9222;-80
2023/10/14 08:49:28;;;;;;;;;;;16.40;99.90;;;;;;7328098;19;9577;-80
2023/10/14 08:52:09;;;;;;;;;;;16.30;99.90;;;;;;7327831;19;9249;-80
2023/10/14 08:54:42;;;;;;;;;;;16.40;99.90;;;;;;7328164;19;9170;-80
2023/10/14 08:57:11;;;;;;;;;;;16.50;99.90;;;;;;7327517;19;9462;-80
2023/10/14 08:59:41;;;;;;;;;;;16.40;99.90;;;;;;7327620;19;9251;-80
2023/10/14 09:02:15;;;;;;;;;;;16.40;99.20;;;;;;7327422;19;9384;-80
2023/10/14 09:04:45;;;;;;;;;;;16.50;99.90;;;;;;7327684;19;9344;-80
2023/10/14 09:07:18;;;;;;;;;;;16.50;94.30;;;;;;7327394;19;9590;-80
2023/10/14 09:09:47;;;;;;;;;;;16.50;99.90;;;;;;7327371;19;9143;-80
2023/10/14 09:12:16;;;;;;;;;;;16.60;99.90;;;;;;7327673;19;9701;-79
2023/10/14 09:14:45;;;;;;;;;;;16.50;97.10;;;;;;7326699;19;11163;-79
2023/10/14 09:17:15;;;;;;;;;;;16.50;99.90;;;;;;7327454;19;9496;-79
2023/10/14 09:19:49;;;;;;;;;;;16.60;99.90;;;;;;7326265;19;9462;-80
2023/10/14 09:22:26;;;;;;;;;;;16.70;99.90;;;;;;7327702;19;9257;-80
2023/10/14 09:24:58;;;;;;;;;;;16.60;99.10;;;;;;7327051;19;9126;-80
2023/10/14 09:27:30;;;;;;;;;;;16.80;99.90;;;;;;7326419;19;9313;-80
2023/10/14 09:29:59;;;;;;;;;;;16.80;99.90;;;;;;7326556;19;9593;-80
2023/10/14 09:32:28;;;;;;;;;;;17.10;99.90;;;;;;7326436;19;9182;-79
2023/10/14 09:34:58;;;;;;;;;;;17.10;94.50;;;;;;7327164;19;9165;-80
2023/10/14 09:37:31;;;;;;;;;;;17.00;95.00;;;;;;7326175;19;9439;-80
2023/10/14 09:40:13;;;;;;;;;;;17.00;94.20;;;;;;7326609;19;9632;-80
2023/10/14 09:42:44;;;;;;;;;;;17.10;99.00;;;;;;7326698;19;9155;-79
2023/10/14 09:45:14;;;;;;;;;;;17.20;98.80;;;;;;7326408;19;9567;-80
2023/10/14 09:47:46;;;;;;;;;;;17.20;96.80;;;;;;7326918;19;9165;-80
2023/10/14 09:50:16;;;;;;;;;;;17.40;95.90;;;;;;7326062;19;10877;-80
2023/10/14 09:52:52;;;;;;;;;;;17.60;97.10;;;;;;7326676;19;9296;-80
2023/10/14 09:55:22;;;;;;;;;;;17.70;92.60;;;;;;7326379;19;9294;-80
2023/10/14 09:57:53;;;;;;;;;;;17.50;97.30;;;;;;7326976;19;9355;-80
2023/10/14 10:00:23;;;;;;;;;;;17.00;93.30;;;;;;7325487;19;9489;-80
2023/10/14 10:02:55;;;;;;;;;;;16.10;91.90;;;;;;7326640;19;9176;-80
2023/10/14 10:05:36;;;;;;;;;;;15.70;95.60;;;;;;7326219;19;9482;-80
2023/10/14 10:08:32;;;;;;;;;;;15.20;97.10;;;;;;7325863;19;9159;-80
2023/10/14 10:11:04;;;;;;;;;;;14.80;99.50;;;;;;7326696;19;9361;-80
2023/10/14 10:13:35;;;;;;;;;;;14.60;99.90;;;;;;7325042;19;9282;-80
2023/10/14 10:16:05;;;;;;;;;;;14.60;99.90;;;;;;7326168;19;9262;-80
2023/10/14 10:18:55;;;;;;;;;;;14.60;99.90;;;;;;7325434;19;9299;-80
2023/10/14 10:21:28;;;;;;;;;;;14.70;99.90;;;;;;7325250;19;9218;-80
2023/10/14 10:24:17;;;;;;;;;;;14.80;99.90;;;;;;7325752;19;9479;-80
2023/10/14 10:27:10;;;;;;;;;;;15.10;99.90;;;;;;7325865;19;9324;-80
2023/10/14 10:29:50;;;;;;;;;;;15.30;99.90;;;;;;7324317;19;9126;-80
2023/10/14 10:32:23;;;;;;;;;;;15.20;99.90;;;;;;7324946;19;9523;-80
2023/10/14 10:35:20;;;;;;;;;;;15.30;99.90;;;;;;7325621;19;9413;-80
2023/10/14 10:37:52;;;;;;;;;;;15.10;99.90;;;;;;7323277;19;9085;-80
2023/10/14 10:40:28;;;;;;;;;;;15.00;99.90;;;;;;7324956;19;9233;-80
2023/10/14 10:42:59;;;;;;;;;;;15.00;99.90;;;;;;7324840;19;9658;-80
2023/10/14 10:45:34;;;;;;;;;;;15.10;99.90;;;;;;7324632;19;9209;-81
2023/10/14 10:48:07;;;;;;;;;;;15.10;99.90;;;;;;7325002;19;9520;-80
2023/10/14 10:50:38;;;;;;;;;;;15.20;99.90;;;;;;7324477;19;9267;-80
2023/10/14 10:53:20;;;;;;;;;;;15.30;99.90;;;;;;7324872;19;9291;-80
2023/10/14 10:55:53;;;;;;;;;;;15.50;99.90;;;;;;7324978;19;9162;-81
2023/10/14 10:58:25;;;;;;;;;;;15.70;99.90;;;;;;7323407;19;9484;-81
2023/10/14 11:00:56;;;;;;;;;;;15.90;99.90;;;;;;7324925;19;11138;-80
2023/10/14 11:03:25;;;;;;;;;;;16.10;99.30;;;;;;7323624;19;9442;-80
2023/10/14 11:05:56;;;;;;;;;;;15.90;97.70;;;;;;7324216;19;9475;-80
2023/10/14 11:08:25;;;;;;;;;;;16.00;99.90;;;;;;7323623;19;9520;-81
2023/10/14 11:11:01;;;;;;;;;;;16.20;99.90;;;;;;7323911;19;11292;-80
2023/10/14 11:13:30;;;;;;;;;;;16.40;99.90;;;;;;7322617;19;10426;-81
2023/10/14 11:15:59;;;;;;;;;;;16.50;99.90;;;;;;7323601;19;9244;-80
2023/10/14 11:18:30;;;;;;;;;;;16.60;99.90;;;;;;7323816;19;9210;-80
2023/10/14 11:20:59;;;;;;;;;;;16.70;99.90;;;;;;7323469;19;9304;-81
2023/10/14 11:23:29;;;;;;;;;;;16.70;97.10;;;;;;7323825;19;9365;-81
2023/10/14 11:26:15;;;;;;;;;;;16.90;99.00;;;;;;7323060;19;9254;-80
2023/10/14 11:28:48;;;;;;;;;;;17.00;99.40;;;;;;7323714;19;9130;-81
2023/10/14 11:31:17;;;;;;;;;;;17.00;95.20;;;;;;7323281;19;11181;-81
2023/10/14 11:33:48;;;;;;;;;;;17.00;94.10;;;;;;7323148;19;9528;-80
2023/10/14 11:36:20;;;;;;;;;;;17.00;91.70;;;;;;7323074;19;9186;-80
2023/10/14 11:38:52;;;;;;;;;;;16.80;95.60;;;;;;7323179;19;9476;-80
2023/10/14 11:41:23;;;;;;;;;;;16.80;96.80;;;;;;7322865;19;9273;-80
2023/10/14 11:43:52;;;;;;;;;;;16.70;98.90;;;;;;7322582;19;9260;-81
2023/10/14 11:46:21;;;;;;;;;;;16.30;93.80;;;;;;7322955;19;9475;-80
2023/10/14 11:48:52;;;;;;;;;;;16.20;96.00;;;;;;7324837;19;10411;-81
2023/10/14 11:51:25;;;;;;;;;;;15.80;95.90;;;;;;7330144;19;9174;-80
2023/10/14 11:53:54;;;;;;;;;;;15.70;96.40;;;;;;7329428;19;10447;-81
2023/10/14 11:56:26;;;;;;;;;;;15.60;99.10;;;;;;7329539;19;9476;-80
2023/10/14 11:58:55;;;;;;;;;;;15.50;99.90;;;;;;7329078;19;9134;-80
2023/10/14 12:01:26;;;;;;;;;;;15.50;99.90;;;;;;7329414;19;9564;-80
2023/10/14 12:03:55;;;;;;;;;;;15.50;98.90;;;;;;7329656;19;9229;-80
2023/10/14 12:06:24;;;;;;;;;;;15.50;99.00;;;;;;7329602;19;11191;-80
2023/10/14 12:08:54;;;;;;;;;;;15.20;99.90;;;;;;7329666;19;9125;-80
2023/10/14 12:11:27;;;;;;;;;;;14.60;97.70;;;;;;7328241;19;9169;-80
2023/10/14 12:13:55;;;;;;;;;;;14.40;99.90;;;;;;7328997;19;9619;-80
2023/10/14 12:16:27;;;;;;;;;;;14.60;99.90;;;;;;7328860;19;9249;-80
2023/10/14 12:18:58;;;;;;;;;;;14.70;99.90;;;;;;7328618;19;9254;-80
2023/10/14 12:21:27;;;;;;;;;;;14.80;99.90;;;;;;7328432;19;9213;-80
2023/10/14 12:24:01;;;;;;;;;;;15.10;99.90;;;;;;7328156;19;10586;-80
2023/10/14 12:26:36;;;;;;;;;;;15.20;99.90;;;;;;7328426;19;9486;-80
2023/10/14 12:29:09;;;;;;;;;;;15.20;99.90;;;;;;7328488;19;9409;-80
2023/10/14 12:31:40;;;;;;;;;;;15.40;99.90;;;;;;7328978;19;9251;-81
2023/10/14 12:34:11;;;;;;;;;;;15.60;99.90;;;;;;7328223;19;9221;-80
2023/10/14 12:36:40;;;;;;;;;;;15.90;99.90;;;;;;7328183;19;9154;-81
2023/10/14 12:39:19;;;;;;;;;;;16.10;99.90;;;;;;7327350;19;10693;-80
2023/10/14 12:41:53;;;;;;;;;;;16.10;99.90;;;;;;7328219;19;9295;-81
2023/10/14 12:44:22;;;;;;;;;;;16.30;99.90;;;;;;7328487;19;11168;-81
2023/10/14 12:46:51;;;;;;;;;;;16.30;99.90;;;;;;7328494;19;9578;-81
2023/10/14 12:49:23;;;;;;;;;;;16.20;99.90;;;;;;7328365;19;9198;-80
2023/10/14 12:51:57;;;;;;;;;;;15.90;97.80;;;;;;7327733;19;9163;-81
2023/10/14 12:54:34;;;;;;;;;;;15.80;95.60;;;;;;7327424;19;9205;-81
2023/10/14 12:57:08;;;;;;;;;;;16.00;99.90;;;;;;7327556;19;9300;-81
2023/10/14 12:59:40;;;;;;;;;;;16.00;99.00;;;;;;7326693;19;9599;-81
2023/10/14 13:02:09;;;;;;;;;;;16.30;96.70;;;;;;7327909;19;9215;-80
2023/10/14 13:04:41;;;;;;;;;;;16.30;97.30;;;;;;7327561;19;10004;-81
2023/10/14 13:07:10;;;;;;;;;;;16.40;94.60;;;;;;7328058;19;8971;-80
2023/10/14 13:09:41;;;;;;;;;;;16.60;99.90;;;;;;7326968;19;9252;-80
2023/10/14 13:12:16;;;;;;;;;;;16.50;92.80;;;;;;7327490;19;9208;-81
2023/10/14 13:14:45;;;;;;;;;;;16.80;98.20;;;;;;7327017;19;9503;-81
2023/10/14 13:17:14;;;;;;;;;;;16.70;92.20;;;;;;7327523;19;9301;-80
2023/10/14 13:19:43;;;;;;;;;;;16.70;87.80;;;;;;7326526;19;9246;-81
2023/10/14 13:22:14;;;;;;;;;;;16.70;90.60;;;;;;7327105;19;9166;-80
2023/10/14 13:24:49;;;;;;;;;;;16.60;85.90;;;;;;7326760;19;9270;-81
2023/10/14 13:27:21;;;;;;;;;;;16.50;87.30;;;;;;7327404;19;10703;-80
2023/10/14 13:29:52;;;;;;;;;;;16.40;82.30;;;;;;7326969;19;9415;-80
2023/10/14 13:32:24;;;;;;;;;;;16.30;81.40;;;;;;7327031;19;9276;-81
2023/10/14 13:34:57;;;;;;;;;;;16.30;87.30;;;;;;7327051;19;9413;-81
2023/10/14 13:37:25;;;;;;;;;;;16.10;79.20;;;;;;7326232;19;9331;-80
2023/10/14 13:39:54;;;;;;;;;;;16.00;82.80;;;;;;7326965;19;9452;-80
2023/10/14 13:42:26;;;;;;;;;;;16.00;89.30;;;;;;7326658;19;9502;-80
2023/10/14 13:44:55;;;;;;;;;;;16.10;91.90;;;;;;7326866;19;9249;-80
2023/10/14 13:47:24;;;;;;;;;;;15.90;83.00;;;;;;7326306;19;9165;-81
2023/10/14 13:49:56;;;;;;;;;;;15.90;92.90;;;;;;7326333;19;9166;-80
2023/10/14 13:52:25;;;;;;;;;;;16.00;85.00;;;;;;7326093;19;9616;-80
2023/10/14 13:54:54;;;;;;;;;;;16.10;90.20;;;;;;7326699;19;9552;-80
2023/10/14 13:57:26;;;;;;;;;;;16.10;89.00;;;;;;7326669;19;9166;-81
2023/10/14 13:59:55;;;;;;;;;;;15.90;79.20;;;;;;7326549;19;11143;-80
2023/10/14 14:02:24;;;;;;;;;;;15.90;92.00;;;;;;7326447;19;9298;-80
2023/10/14 14:04:53;;;;;;;;;;;16.00;92.60;;;;;;7326105;19;9197;-80
2023/10/14 14:07:24;;;;;;;;;;;15.90;90.40;;;;;;7326018;19;9601;-80
2023/10/14 14:09:53;;;;;;;;;;;16.00;90.20;;;;;;7324972;19;10483;-80
2023/10/14 14:12:22;;;;;;;;;;;16.00;87.50;;;;;;7323395;19;9170;-80
2023/10/14 14:14:53;;;;;;;;;;;16.20;94.80;;;;;;7324834;19;11148;-79
2023/10/14 14:17:25;;;;;;;;;;;16.40;94.10;;;;;;7326011;19;9631;-80
2023/10/14 14:19:55;;;;;;;;;;;16.40;93.20;;;;;;7324803;19;9239;-80
2023/10/14 14:22:25;;;;;;;;;;;16.20;91.70;;;;;;7325623;19;9135;-80
2023/10/14 14:24:55;;;;;;;;;;;16.10;90.20;;;;;;7325380;19;9279;-80
2023/10/14 14:27:24;;;;;;;;;;;15.80;86.60;;;;;;7325528;19;9131;-80
2023/10/14 14:29:55;;;;;;;;;;;15.60;86.50;;;;;;7325551;19;9473;-80
2023/10/14 14:32:25;;;;;;;;;;;15.40;91.90;;;;;;7325039;19;9290;-80
2023/10/14 14:34:55;;;;;;;;;;;15.30;92.60;;;;;;7325381;19;9236;-80
2023/10/14 14:37:27;;;;;;;;;;;15.30;93.90;;;;;;7324863;19;9180;-80
2023/10/14 14:39:56;;;;;;;;;;;15.40;89.00;;;;;;7324919;19;9131;-80
2023/10/14 14:42:26;;;;;;;;;;;15.60;96.60;;;;;;7324204;19;10707;-80
2023/10/14 14:44:58;;;;;;;;;;;15.70;95.30;;;;;;7325030;19;9197;-80
2023/10/14 14:47:27;;;;;;;;;;;15.70;92.20;;;;;;7324217;19;9529;-80
2023/10/14 14:49:56;;;;;;;;;;;15.70;94.10;;;;;;7324056;19;9155;-80
2023/10/14 14:52:26;;;;;;;;;;;15.80;95.60;;;;;;7324371;19;9453;-80
2023/10/14 14:54:58;;;;;;;;;;;15.80;93.80;;;;;;7324164;19;9289;-80
2023/10/14 14:57:27;;;;;;;;;;;15.70;88.10;;;;;;7325087;19;9206;-80
2023/10/14 14:59:58;;;;;;;;;;;15.40;83.60;;;;;;7324379;19;9653;-80
2023/10/14 15:02:27;;;;;;;;;;;15.10;88.20;;;;;;7324862;19;9124;-80
2023/10/14 15:04:56;;;;;;;;;;;15.20;94.30;;;;;;7323120;19;9336;-80
2023/10/14 15:07:25;;;;;;;;;;;14.80;86.50;;;;;;7324656;19;9513;-80
2023/10/14 15:09:54;;;;;;;;;;;14.60;92.10;;;;;;7323691;19;10474;-80